Landels-Hill Big Creek Reserve Entrance, California Weather observations

Data are for 10 minute period ending at time listed.
 Day   Time   Solar   Ave.   Ave.  Ave.  Vector  Max.   Baro.   Total    
  of    of     Rad.   Air    Rel.  Wind   Wind   Wind  Press.  Precip.   
Year   Day            Temp.  Hum.  Speed  Dir.   Gust                    
2014   (PST)  Kw/m2    F      %     mph   deg.    mph    mb.     in.     
-------------------------------------------------------------------------
 202   11:00   0.13   66.9    79    0.8   263     3.3   1015.4    0.00 
 202   11:10   0.12   66.4    80    0.7   262     2.9   1015.4    0.00 
 202   11:20   0.13   66.3    82    0.4   236     2.6   1015.3    0.00 
 202   11:30   0.14   66.4    81    0.7   300     2.9   1015.4    0.00 
 202   11:40   0.16   66.3    82    0.7   239     3.5   1015.3    0.00 
 202   11:50   0.16   66.3    83    0.5   223     3.2   1015.5    0.00 
 202   12:00   0.15   66.2    83    0.6   202     3.0   1015.7    0.00 
 202   12:10   0.17   65.8    83    0.7   162     3.1   1015.6    0.00 
 202   12:20   0.17   66.1    83    0.6   189     2.3   1015.6    0.00 
 202   12:30   0.18   66.6    81    0.7   190     2.6   1015.5    0.00 
 202   12:40   0.19   66.8    80    0.9   208     2.6   1015.6    0.00 
 202   12:50   0.21   66.7    80    1.2   248     3.6   1015.7    0.00 
 202   13:00   0.21   65.9    82    1.4   235     3.4   1015.7    0.00 
 202   13:10   0.22   66.1    82    0.8   233     2.9   1015.7    0.00 
 202   13:20   0.23   66.4    80    0.6   224     2.0   1015.6    0.00 
 202   13:30   0.25   67.0    77    0.8   250     2.5   1015.4    0.00 
 202   13:40   0.27   67.6    75    0.8   204     2.4   1015.5    0.00 
 202   13:50   0.29   67.7    74    0.8   212     2.8   1015.5    0.00 
 202   14:00   0.29   68.1    73    0.7   211     2.1   1015.5    0.00 
 202   14:10   0.27   68.6    71    0.3   196     2.0   1015.4    0.00 
 202   14:20   0.24   69.0    70    0.8   190     3.0   1015.3    0.00 
 202   14:30   0.23   69.1    69    1.1   203     2.3   1015.2    0.00 
 202   14:40   0.25   69.2    69    0.7   196     2.6   1015.1    0.00 
 202   14:50   0.26   70.0    68    0.9   204     2.7   1015.2    0.00 
 202   15:00   0.24   69.2    70    1.2   207     3.1   1015.3    0.00 
 202   15:10   0.23   68.5    72    0.9   230     2.3   1015.2    0.00 
 202   15:20   0.24   68.6    72    0.8   191     2.6   1014.9    0.00 
 202   15:30   0.24   68.0    72    2.0   159     4.8   1014.7    0.00 
 202   15:40   0.26   67.7    73    1.4   185     3.7   1014.7    0.00 
 202   15:50   0.31   68.8    71    1.0   216     3.1   1014.6    0.00 
 202   16:00   0.33   69.0    70    1.8   180     4.5   1014.4    0.00 
 202   16:10   0.43   69.0    69    2.0   191     5.3   1014.4    0.00 
 202   16:20   0.55   70.0    67    1.1   141     3.7   1014.2    0.00 
 202   16:30   0.52   70.7    64    2.0    99     4.5   1014.1    0.00 
 202   16:40   0.48   69.5    66    3.3   173     6.5   1013.8    0.00 
 202   16:50   0.45   69.5    66    4.2   173     7.8   1013.7    0.00 
 202   17:00   0.42   69.3    66    3.7   159     8.5   1013.9    0.00 
 202   17:10   0.39   69.1    67    1.9    16     4.7   1014.0    0.00 
 202   17:20   0.35   70.2    67    1.7    57     5.3   1014.1    0.00 
 202   17:30   0.26   69.9    67    1.5    10     3.6   1014.2    0.00 
 202   17:40   0.04   67.5    72    1.6    60     4.3   1014.1    0.00 
 202   17:50   0.04   67.1    74    2.7   126     6.9   1013.9    0.00 
 202   18:00   0.03   66.7    76    3.8   142     7.6   1013.7    0.00 
 202   18:10   0.03   66.4    77    2.9   124     8.7   1013.5    0.00 
 202   18:20   0.03   66.2    77    2.4   356     6.0   1013.2    0.00 
 202   18:30   0.02   65.9    78    4.8   137     8.8   1013.1    0.00 
 202   18:40   0.02   65.6    80    4.1    87     7.7   1013.1    0.00 
 202   18:50   0.03   65.7    81    4.6   140     9.0   1013.1    0.00 
 202   19:00   0.03   65.7    81    5.2   160     8.6   1013.2    0.00 
 202   19:10   0.01   65.6    82    4.5   166     9.6   1013.1    0.00 
 202   19:20   0.01   65.6    82    3.7   162    10.8   1013.1    0.00 
 202   19:30   0.01   65.6    82    2.0    54     6.5   1013.1    0.00 
 202   19:40   0.00   65.5    82    2.5    22     5.0   1013.0    0.00 
 202   19:50   0.00   65.4    82    2.1    74     5.1   1013.0    0.00 
 202   20:00   0.00   65.4    83    1.8    99     4.7   1013.0    0.00 
 202   20:10   0.00   65.4    84    1.8   185     4.8   1013.0    0.00 
 202   20:20   0.00   65.2    84    1.3    98     5.8   1013.1    0.00 
 202   20:30   0.00   65.1    84    1.3    51     5.5   1013.2    0.00 
 202   20:40   0.00   65.1    84    1.6    92     4.4   1013.4    0.00 
 202   20:50   0.00   65.2    84    0.8   113     2.6   1013.7    0.00 
 202   21:00   0.00   65.0    83    2.1    82     4.8   1013.8    0.00 
 202   21:10   0.00   65.1    82    1.5    45     3.8   1014.0    0.00 
 202   21:20   0.00   65.1    82    1.1    32     2.3   1014.0    0.00 
 202   21:30   0.00   65.1    82    0.9    34     2.5   1013.8    0.00 
 202   21:40   0.00   65.2    82    1.2   155     4.3   1013.8    0.00 
 202   21:50   0.00   65.1    82    1.4    60     3.1   1013.7    0.00 
 202   22:00   0.00   65.1    82    1.2    26     3.4   1013.8    0.00 
 202   22:10   0.00   65.1    82    0.6    45     2.9   1013.8    0.00 
 202   22:20   0.00   65.0    82    0.4    29     1.5   1013.9    0.00 
 202   22:30   0.00   64.9    82    0.4    44     1.2   1013.8    0.00 
 202   22:40   0.00   64.9    82    0.0     8     0.5   1013.7    0.00 
 202   22:50   0.00   64.4    82    0.8     6     2.9   1013.8    0.00 
 202   23:00   0.00   63.7    82    1.5    31     3.0   1013.7    0.00 
 202   23:10   0.00   63.1    82    1.5    31     2.9   1013.7    0.00 
 202   23:20   0.00   62.5    84    2.1     8     5.0   1013.8    0.00 
 202   23:30   0.00   61.9    84    2.7     3     5.4   1013.5    0.00 
 202   23:40   0.00   61.8    83    2.1    40     3.9   1013.5    0.00 
 202   23:50   0.00   61.5    83    1.9    25     5.3   1013.4    0.00 
 203    0:00   0.00   61.0    84    1.7    51     4.2   1013.4    0.00 
 203    0:10   0.00   60.8    85    1.5    29     4.3   1013.4    0.00 
 203    0:20   0.00   60.6    85    1.2    44     3.4   1013.6    0.00 
 203    0:30   0.00   60.4    85    1.7    60     4.2   1013.8    0.00 
 203    0:40   0.00   60.3    86    1.6    44     3.8   1013.9    0.00 
 203    0:50   0.00   60.1    85    1.1    56     3.6   1013.9    0.00 
 203    1:00   0.00   59.9    86    1.7    45     4.0   1014.0    0.00 
 203    1:10   0.00   59.7    86    2.1    33     5.0   1014.0    0.00 
 203    1:20   0.00   59.5    86    1.9    27     4.6   1014.0    0.00 
 203    1:30   0.00   59.4    86    2.0    26     4.7   1014.0    0.00 
 203    1:40   0.00   59.3    86    2.5    29     6.2   1014.0    0.00 
 203    1:50   0.00   59.1    87    3.7     1     6.0   1013.9    0.00 
 203    2:00   0.00   58.9    87    2.8     6     5.3   1013.8    0.00 
 203    2:10   0.00   58.7    87    3.2   354     6.9   1013.8    0.00 
 203    2:20   0.00   58.5    88    2.8     2     7.0   1013.8    0.00 
 203    2:30   0.00   58.4    88    3.1     4     6.9   1013.9    0.00 
 203    2:40   0.00   58.4    88    1.9    61     4.1   1013.9    0.00 
 203    2:50   0.00   58.4    88    1.8    52     5.0   1013.9    0.00 
 203    3:00   0.00   58.4    88    1.7    50     3.9   1013.9    0.00 
 203    3:10   0.00   58.5    88    2.0    63     3.9   1013.7    0.00 
 203    3:20   0.00   58.3    88    2.6    28     6.3   1013.7    0.00 
 203    3:30   0.00   58.2    88    2.2    39     4.7   1013.9    0.00 
 203    3:40   0.00   58.1    88    2.3    44     4.9   1014.1    0.00 
 203    3:50   0.00   58.1    89    2.6    28     6.4   1014.1    0.00 
 203    4:00   0.00   58.2    88    2.1    11     4.6   1014.2    0.00 
 203    4:10   0.00   58.2    88    1.8    36     3.4   1014.3    0.00 
 203    4:20   0.00   58.2    88    2.3    54     3.9   1014.3    0.00 
 203    4:30   0.00   58.3    88    2.8    18     5.8   1014.3    0.00 
 203    4:40   0.00   58.3    88    2.0    18     4.5   1014.4    0.00 
 203    4:50   0.00   58.3    88    2.1    49     4.6   1014.5    0.00 
 203    5:00   0.00   58.4    88    2.3    49     4.5   1014.6    0.00 
 203    5:10   0.00   58.4    88    1.6    38     3.8   1014.5    0.00 
 203    5:20   0.01   58.3    88    2.3    15     6.1   1014.5    0.00 
 203    5:30   0.01   58.4    88    2.4    29     5.3   1014.5    0.00 
 203    5:40   0.02   58.6    88    2.1    42     4.6   1014.4    0.00 
 203    5:50   0.03   58.5    88    2.0    30     4.7   1014.5    0.00 
 203    6:00   0.05   58.7    88    2.3    28     5.8   1014.6    0.00 
 203    6:10   0.05   59.2    87    1.6    21     4.3   1014.8    0.00 
 203    6:20   0.05   59.4    87    2.3    37     4.7   1014.8    0.00 
 203    6:30   0.05   59.7    86    2.6     5     5.7   1015.0    0.00 
 203    6:40   0.06   59.8    86    1.8    45     3.8   1015.0    0.00 
 203    6:50   0.08   60.3    86    1.0    18     2.9   1015.0    0.00 
 203    7:00   0.09   60.7    86    0.5    56     2.0   1014.9    0.00 
 203    7:10   0.10   61.5    84    0.3    16     1.4   1015.0    0.00 
 203    7:20   0.10   63.0    84    0.2   150     1.3   1015.1    0.00 
 203    7:30   0.10   64.0    81    0.5   161     1.5   1015.3    0.00 
 203    7:40   0.10   64.5    81    0.2   204     1.0   1015.3    0.00 
 203    7:50   0.10   64.7    80    0.9   203     2.0   1015.2    0.00 
 203    8:00   0.11   64.9    80    0.5   198     1.8   1015.3    0.00 
 203    8:10   0.11   65.4    79    0.2   229     1.7   1015.5    0.00 
 203    8:20   0.15   65.4    79    0.7   200     2.2   1015.5    0.00 
 203    8:30   0.16   65.8    78    0.9   200     2.9   1015.5    0.00 
 203    8:40   0.22   66.2    77    1.2   201     3.1   1015.6    0.00 
 203    8:50   0.26   66.4    77    1.2   208     2.6   1015.7    0.00 
 203    9:00   0.26   66.8    76    0.8   169     2.3   1015.8    0.00 
 203    9:10   0.28   66.9    75    1.2   156     2.9   1015.9    0.00 
 203    9:20   0.31   66.6    74    1.4   154     3.9   1015.9    0.00 
 203    9:30   0.34   66.7    72    1.4   151     3.2   1016.0    0.00 
 203    9:40   0.39   67.4    71    1.2   185     2.8   1016.1    0.00 
 203    9:50   0.39   68.3    70    1.3   211     3.4   1016.2    0.00 
 203   10:00   0.46   68.3    70    1.4   197     3.6   1016.4    0.00 
 203   10:10   0.73   69.2    69    1.3   207     3.7   1016.4    0.00 
 203   10:20   0.75   70.6    65    1.9   204     3.9   1016.5    0.00 
 203   10:30   0.82   70.0    66    2.1   200     3.6   1016.6    0.00 
 203   10:40   0.84   71.2    66    1.6   186     3.9   1016.7    0.00 
 203   10:50   0.86   71.9    65    1.5   161     3.6   1016.7    0.00 

Return to Big Creek Reserve Entrance graphs page.


Western Regional Climate Center,wrcc@dri.edu